createdAt,value
2023-08-15T00:00:08.257Z,18.23
2023-08-15T00:03:00.974Z,18.16
2023-08-15T00:05:29.847Z,18.13
2023-08-15T00:08:04.982Z,18.08
2023-08-15T00:10:33.457Z,18.07
2023-08-15T00:13:02.156Z,18.04
2023-08-15T00:15:33.371Z,18.00
2023-08-15T00:18:02.205Z,17.97
2023-08-15T00:20:30.780Z,17.95
2023-08-15T00:22:59.112Z,17.93
2023-08-15T00:25:27.697Z,17.88
2023-08-15T00:27:56.205Z,17.84
2023-08-15T00:30:24.579Z,17.79
2023-08-15T00:32:53.083Z,17.75
2023-08-15T00:35:21.716Z,17.72
2023-08-15T00:37:50.187Z,17.75
2023-08-15T00:40:18.968Z,17.75
2023-08-15T00:42:49.068Z,17.72
2023-08-15T00:45:17.627Z,17.70
2023-08-15T00:47:46.452Z,17.67
2023-08-15T00:50:15.090Z,17.64
2023-08-15T00:52:43.860Z,17.61
2023-08-15T00:55:12.644Z,17.58
2023-08-15T00:57:41.153Z,17.55
2023-08-15T01:00:13.221Z,17.51
2023-08-15T01:02:43.161Z,17.48
2023-08-15T01:05:19.706Z,17.44
2023-08-15T01:08:03.799Z,17.40
2023-08-15T01:10:56.189Z,17.37
2023-08-15T01:13:35.943Z,17.35
2023-08-15T01:16:09.290Z,17.38
2023-08-15T01:18:46.427Z,17.34
2023-08-15T01:21:18.182Z,17.29
2023-08-15T01:23:48.378Z,17.26
2023-08-15T01:26:16.697Z,17.23
2023-08-15T01:28:45.333Z,17.20
2023-08-15T01:31:32.089Z,17.18
2023-08-15T01:34:13.694Z,17.15
2023-08-15T01:37:10.338Z,17.12
2023-08-15T01:39:39.751Z,17.08
2023-08-15T01:42:09.463Z,17.05
2023-08-15T01:44:38.526Z,17.00
2023-08-15T01:47:08.955Z,17.00
2023-08-15T01:49:37.393Z,17.03
2023-08-15T01:52:06.050Z,17.00
2023-08-15T01:54:34.627Z,16.95
2023-08-15T01:57:03.064Z,16.92
2023-08-15T01:59:32.054Z,16.89
2023-08-15T02:02:00.455Z,16.84
2023-08-15T02:04:28.893Z,16.80
2023-08-15T02:06:59.163Z,16.78
2023-08-15T02:09:27.703Z,16.77
2023-08-15T02:11:56.163Z,16.74
2023-08-15T02:14:25.756Z,16.69
2023-08-15T02:16:54.250Z,16.66
2023-08-15T02:19:22.851Z,16.64
2023-08-15T02:21:53.196Z,16.64
2023-08-15T02:24:21.808Z,16.69
2023-08-15T02:26:50.643Z,16.68
2023-08-15T02:29:19.305Z,16.63
2023-08-15T02:31:49.153Z,16.61
2023-08-15T02:34:19.108Z,16.58
2023-08-15T02:36:50.457Z,16.56
2023-08-15T02:39:19.768Z,16.54
2023-08-15T02:41:48.291Z,16.51
2023-08-15T02:44:16.834Z,16.48
2023-08-15T02:46:45.323Z,16.44
2023-08-15T02:49:14.370Z,16.43
2023-08-15T02:51:43.008Z,16.45
2023-08-15T02:54:12.196Z,16.39
2023-08-15T02:56:40.895Z,16.34
2023-08-15T02:59:09.330Z,16.31
2023-08-15T03:01:37.764Z,16.30
2023-08-15T03:04:10.338Z,16.31
2023-08-15T03:06:38.864Z,16.30
2023-08-15T03:09:07.312Z,16.27
2023-08-15T03:11:35.712Z,16.26
2023-08-15T03:14:04.432Z,16.28
2023-08-15T03:16:33.436Z,16.25
2023-08-15T03:19:02.270Z,16.22
2023-08-15T03:21:31.623Z,16.24
2023-08-15T03:24:00.136Z,16.26
2023-08-15T03:26:30.101Z,16.26
2023-08-15T03:28:59.151Z,16.26
2023-08-15T03:31:27.459Z,16.25
2023-08-15T03:33:58.375Z,16.27
2023-08-15T03:36:27.032Z,16.32
2023-08-15T03:38:55.693Z,16.32
2023-08-15T03:41:24.200Z,16.33
2023-08-15T03:43:52.551Z,16.34
2023-08-15T03:46:21.310Z,16.37
2023-08-15T03:48:49.800Z,16.41
2023-08-15T03:51:38.081Z,16.44
2023-08-15T03:54:09.566Z,16.47
2023-08-15T03:56:38.728Z,16.51
2023-08-15T03:59:07.390Z,16.57
2023-08-15T04:01:35.840Z,16.56
2023-08-15T04:04:04.961Z,16.55
2023-08-15T04:06:33.524Z,16.58
2023-08-15T04:09:02.023Z,16.61
2023-08-15T04:11:30.344Z,16.66
2023-08-15T04:14:00.095Z,16.70
2023-08-15T04:16:29.047Z,16.75
2023-08-15T04:18:57.636Z,16.81
2023-08-15T04:21:26.203Z,16.90
2023-08-15T04:23:54.841Z,16.98
2023-08-15T04:26:23.418Z,16.97
2023-08-15T04:28:52.013Z,16.97
2023-08-15T04:31:20.342Z,17.02
2023-08-15T04:33:48.903Z,17.15
2023-08-15T04:36:17.173Z,17.25
2023-08-15T04:38:45.923Z,17.35
2023-08-15T04:41:17.327Z,17.43
2023-08-15T04:43:45.719Z,17.49
2023-08-15T04:46:14.257Z,17.58
2023-08-15T04:48:42.920Z,17.59
2023-08-15T04:51:12.889Z,17.71
2023-08-15T04:53:41.395Z,17.86
2023-08-15T04:56:13.032Z,17.95
2023-08-15T04:58:41.622Z,18.05
2023-08-15T05:01:10.732Z,18.16
2023-08-15T05:03:39.374Z,18.28
2023-08-15T05:06:07.859Z,18.40
2023-08-15T05:08:37.289Z,18.52
2023-08-15T05:11:05.790Z,18.65
2023-08-15T05:13:34.367Z,18.80
2023-08-15T05:16:02.974Z,18.94
2023-08-15T05:18:31.538Z,19.08
2023-08-15T05:21:00.061Z,19.21
2023-08-15T05:23:29.342Z,19.35
2023-08-15T05:25:57.680Z,19.49
2023-08-15T05:28:26.212Z,19.61
2023-08-15T05:30:55.014Z,19.69
2023-08-15T05:33:23.589Z,19.76
2023-08-15T05:35:51.942Z,19.87
2023-08-15T05:38:20.443Z,20.01
2023-08-15T05:40:48.823Z,20.12
2023-08-15T05:43:17.632Z,20.24
2023-08-15T05:45:50.728Z,20.40
2023-08-15T05:48:19.407Z,20.60
2023-08-15T05:50:47.849Z,20.76
2023-08-15T05:53:16.641Z,20.87
2023-08-15T05:55:45.493Z,21.07
2023-08-15T05:58:14.598Z,21.30
2023-08-15T06:00:43.521Z,21.52
2023-08-15T06:03:12.093Z,21.73
2023-08-15T06:05:41.596Z,21.94
2023-08-15T06:08:10.113Z,22.16
2023-08-15T06:10:38.716Z,22.36
2023-08-15T06:13:07.143Z,22.56
2023-08-15T06:15:35.683Z,22.90
2023-08-15T06:18:04.204Z,23.42
2023-08-15T06:20:34.166Z,24.08
2023-08-15T06:23:03.288Z,24.79
2023-08-15T06:25:32.445Z,25.53
2023-08-15T06:28:00.824Z,26.19
2023-08-15T06:30:29.737Z,26.82
2023-08-15T06:32:58.629Z,27.36
2023-08-15T06:35:30.086Z,27.88
2023-08-15T06:37:58.846Z,28.44
2023-08-15T06:40:27.539Z,28.93
2023-08-15T06:42:56.739Z,29.39
2023-08-15T06:45:26.023Z,29.83
2023-08-15T06:47:54.574Z,30.14
2023-08-15T06:50:23.087Z,30.37
2023-08-15T06:52:51.620Z,30.63
2023-08-15T06:55:19.805Z,30.88
2023-08-15T06:57:48.429Z,31.03
2023-08-15T07:00:20.114Z,31.40
2023-08-15T07:02:48.711Z,31.97
2023-08-15T07:05:17.892Z,32.47
2023-08-15T07:07:46.448Z,32.74
2023-08-15T07:10:15.657Z,33.18
2023-08-15T07:12:46.626Z,33.62
2023-08-15T07:15:16.700Z,33.67
2023-08-15T07:17:45.503Z,33.62
2023-08-15T07:20:16.893Z,33.89
2023-08-15T07:22:45.326Z,34.22
2023-08-15T07:25:14.096Z,34.61
2023-08-15T07:27:42.793Z,34.98
2023-08-15T07:30:13.886Z,35.09
2023-08-15T07:32:42.593Z,35.11
2023-08-15T07:35:11.304Z,34.91
2023-08-15T07:37:40.299Z,35.02
2023-08-15T07:40:11.477Z,35.31
2023-08-15T07:42:40.148Z,35.78
2023-08-15T07:45:09.352Z,36.14
2023-08-15T07:47:39.815Z,36.15
2023-08-15T07:50:17.856Z,36.71
2023-08-15T07:52:47.460Z,37.10
2023-08-15T07:55:16.246Z,37.09
2023-08-15T07:57:45.453Z,37.22
2023-08-15T08:00:15.879Z,37.65
2023-08-15T08:02:45.810Z,37.87
2023-08-15T08:05:17.721Z,38.01
2023-08-15T08:07:46.590Z,38.25
2023-08-15T08:10:15.094Z,38.40
2023-08-15T08:12:43.707Z,38.66
2023-08-15T08:15:12.412Z,38.85
2023-08-15T08:17:41.210Z,38.99
2023-08-15T08:20:18.365Z,39.04
2023-08-15T08:22:46.950Z,39.11
2023-08-15T08:25:20.590Z,38.91
2023-08-15T08:27:50.456Z,38.79
2023-08-15T08:30:20.818Z,38.87
2023-08-15T08:32:50.045Z,38.95
2023-08-15T08:35:19.185Z,39.09
2023-08-15T08:37:51.285Z,38.83
2023-08-15T08:40:20.227Z,38.39
2023-08-15T08:42:48.712Z,38.54
2023-08-15T08:45:17.198Z,39.02
2023-08-15T08:47:47.254Z,39.46
2023-08-15T08:50:16.211Z,39.59
2023-08-15T08:52:51.341Z,39.95
2023-08-15T08:55:21.568Z,39.96
2023-08-15T08:57:52.453Z,39.75
2023-08-15T09:00:27.158Z,39.19
2023-08-15T09:02:58.046Z,39.33
2023-08-15T09:05:28.715Z,38.77
2023-08-15T09:07:59.211Z,38.32
2023-08-15T09:10:28.067Z,38.13
2023-08-15T09:13:01.492Z,37.84
2023-08-15T09:15:32.958Z,37.51
2023-08-15T09:18:09.222Z,37.23
2023-08-15T09:20:46.136Z,36.92
2023-08-15T09:23:15.205Z,36.45
2023-08-15T09:25:43.885Z,36.06
2023-08-15T09:28:12.877Z,35.96
2023-08-15T09:30:51.351Z,36.01
2023-08-15T09:33:20.899Z,36.29
2023-08-15T09:35:58.402Z,36.49
2023-08-15T09:38:29.039Z,36.46
2023-08-15T09:40:58.330Z,36.16
2023-08-15T09:43:27.524Z,36.01
2023-08-15T09:45:57.641Z,35.70
2023-08-15T09:48:27.550Z,35.51
2023-08-15T09:50:56.978Z,35.61
2023-08-15T09:53:26.176Z,35.67
2023-08-15T09:55:55.339Z,35.62
2023-08-15T09:58:23.781Z,35.38
2023-08-15T10:00:52.964Z,35.01
2023-08-15T10:03:26.360Z,34.64
2023-08-15T10:05:58.659Z,34.15
2023-08-15T10:08:27.065Z,33.88
2023-08-15T10:10:59.396Z,33.62
2023-08-15T10:13:31.829Z,33.47
2023-08-15T10:16:00.807Z,33.28
2023-08-15T10:18:30.534Z,33.15
2023-08-15T10:20:59.815Z,33.06
2023-08-15T10:23:33.219Z,33.04
2023-08-15T10:26:02.638Z,32.98
2023-08-15T10:28:35.156Z,32.98
2023-08-15T10:31:03.923Z,33.01
2023-08-15T10:33:35.017Z,33.08
2023-08-15T10:36:03.704Z,33.33
2023-08-15T10:38:45.271Z,33.69
2023-08-15T10:41:17.166Z,34.05
2023-08-15T10:43:48.667Z,34.09
2023-08-15T10:46:20.104Z,34.01
2023-08-15T10:49:03.814Z,33.88
2023-08-15T10:51:34.320Z,33.61
2023-08-15T10:54:07.840Z,33.45
2023-08-15T10:56:38.442Z,33.32
2023-08-15T10:59:08.819Z,33.38
2023-08-15T11:01:39.131Z,33.51
2023-08-15T11:04:12.335Z,33.54
2023-08-15T11:06:44.351Z,33.73
2023-08-15T11:09:12.826Z,34.01
2023-08-15T11:11:41.016Z,34.38
2023-08-15T11:14:19.795Z,34.47
2023-08-15T11:16:49.934Z,34.61
2023-08-15T11:19:19.936Z,34.78
2023-08-15T11:21:49.682Z,34.89
2023-08-15T11:24:19.296Z,34.98
2023-08-15T11:26:49.396Z,35.29
2023-08-15T11:29:17.976Z,35.66
2023-08-15T11:31:47.069Z,35.94
2023-08-15T11:34:16.578Z,35.90
2023-08-15T11:36:46.388Z,35.83
2023-08-15T11:39:15.527Z,35.79
2023-08-15T11:41:45.727Z,35.64
2023-08-15T11:44:14.297Z,35.51
2023-08-15T11:49:19.072Z,35.50
2023-08-15T11:51:48.024Z,35.99
2023-08-15T11:54:17.119Z,36.49
2023-08-15T11:56:50.996Z,37.10
2023-08-15T11:59:20.530Z,37.45
2023-08-15T12:01:49.953Z,37.72
2023-08-15T12:04:20.200Z,38.09
2023-08-15T12:06:48.856Z,38.30
2023-08-15T12:09:17.634Z,38.57
2023-08-15T12:11:46.126Z,38.74
2023-08-15T12:14:21.661Z,38.96
2023-08-15T12:16:50.396Z,39.10
2023-08-15T12:19:22.917Z,38.96
2023-08-15T12:21:54.548Z,38.77
2023-08-15T12:24:23.368Z,38.48
2023-08-15T12:26:51.946Z,38.23
2023-08-15T12:29:20.527Z,37.98
2023-08-15T12:32:09.179Z,37.66
2023-08-15T12:34:38.480Z,37.54
2023-08-15T12:37:07.278Z,37.65
2023-08-15T12:39:36.471Z,37.96
2023-08-15T12:42:07.398Z,38.06
2023-08-15T12:44:36.097Z,38.05
2023-08-15T12:47:05.299Z,38.38
2023-08-15T12:49:34.386Z,38.60
2023-08-15T12:52:03.167Z,38.72
2023-08-15T12:54:32.166Z,38.51
2023-08-15T12:57:03.511Z,38.30
2023-08-15T12:59:32.608Z,38.43
2023-08-15T13:02:01.085Z,38.72
2023-08-15T13:04:30.202Z,38.64
2023-08-15T13:06:58.665Z,38.73
2023-08-15T13:09:27.141Z,38.53
2023-08-15T13:11:55.927Z,38.50
2023-08-15T13:14:32.856Z,38.64
2023-08-15T13:17:02.479Z,38.62
2023-08-15T13:19:33.045Z,38.51
2023-08-15T13:22:01.529Z,38.35
2023-08-15T13:24:30.140Z,38.37
2023-08-15T13:26:58.498Z,38.30
2023-08-15T13:29:28.606Z,38.23
2023-08-15T13:31:57.301Z,38.31
2023-08-15T13:34:27.315Z,38.19
2023-08-15T13:36:56.822Z,38.10
2023-08-15T13:39:25.962Z,38.29
2023-08-15T13:41:54.695Z,38.53
2023-08-15T13:44:23.387Z,38.68
2023-08-15T13:46:52.517Z,38.79
2023-08-15T13:49:21.473Z,38.72
2023-08-15T13:51:49.955Z,38.57
2023-08-15T13:54:18.437Z,38.60
2023-08-15T13:56:46.809Z,38.73
2023-08-15T13:59:15.905Z,38.86
2023-08-15T14:01:44.561Z,38.81
2023-08-15T14:04:13.372Z,38.86
2023-08-15T14:06:42.007Z,38.94
2023-08-15T14:09:10.652Z,38.83
2023-08-15T14:11:39.327Z,38.75
2023-08-15T14:14:07.914Z,38.69
2023-08-15T14:16:36.565Z,38.53
2023-08-15T14:19:07.148Z,38.32
2023-08-15T14:21:36.321Z,37.95
2023-08-15T14:24:05.744Z,37.62
2023-08-15T14:26:35.576Z,37.34
2023-08-15T14:29:04.089Z,36.98
2023-08-15T14:31:33.011Z,36.70
2023-08-15T14:34:01.352Z,36.50
2023-08-15T14:36:29.673Z,36.44
2023-08-15T14:38:58.532Z,36.41
2023-08-15T14:41:26.945Z,36.38
2023-08-15T14:43:55.832Z,36.39
2023-08-15T14:46:24.777Z,36.27
2023-08-15T14:48:53.730Z,36.19
2023-08-15T14:51:23.215Z,36.11
2023-08-15T14:53:52.008Z,35.89
2023-08-15T14:56:20.585Z,35.74
2023-08-15T14:58:49.186Z,35.54
2023-08-15T15:01:19.849Z,35.37
2023-08-15T15:03:48.480Z,35.18
2023-08-15T15:06:19.437Z,34.94
2023-08-15T15:08:48.102Z,34.69
2023-08-15T15:11:16.998Z,34.46
2023-08-15T15:13:46.800Z,34.18
2023-08-15T15:16:16.050Z,33.91
2023-08-15T15:18:44.716Z,33.71
2023-08-15T15:21:13.496Z,33.58
2023-08-15T15:23:42.058Z,33.42
2023-08-15T15:26:10.751Z,33.28
2023-08-15T15:28:39.857Z,33.16
2023-08-15T15:31:09.664Z,33.10
2023-08-15T15:33:38.340Z,33.03
2023-08-15T15:36:07.132Z,32.94
2023-08-15T15:38:35.820Z,32.85
2023-08-15T15:41:04.412Z,32.77
2023-08-15T15:43:32.985Z,32.69
2023-08-15T15:46:03.838Z,32.61
2023-08-15T15:48:33.081Z,32.53
2023-08-15T15:51:05.079Z,32.44
2023-08-15T15:53:33.666Z,32.36
2023-08-15T15:56:02.758Z,32.31
2023-08-15T15:58:31.602Z,32.26
2023-08-15T16:01:00.669Z,32.20
2023-08-15T16:03:29.428Z,32.14
2023-08-15T16:05:58.222Z,32.06
2023-08-15T16:08:27.821Z,31.97
2023-08-15T16:10:56.710Z,31.91
2023-08-15T16:13:26.986Z,31.85
2023-08-15T16:15:56.057Z,31.78
2023-08-15T16:18:24.917Z,31.70
2023-08-15T16:20:53.509Z,31.60
2023-08-15T16:23:23.262Z,31.52
2023-08-15T16:25:53.220Z,31.42
2023-08-15T16:28:22.330Z,31.33
2023-08-15T16:30:51.524Z,31.27
2023-08-15T16:33:20.203Z,31.22
2023-08-15T16:35:48.897Z,31.15
2023-08-15T16:38:17.431Z,31.09
2023-08-15T16:40:45.860Z,31.03
2023-08-15T16:43:16.589Z,30.98
2023-08-15T16:45:47.001Z,30.94
2023-08-15T16:48:17.133Z,30.86
2023-08-15T16:50:45.815Z,30.80
2023-08-15T16:53:14.511Z,30.70
2023-08-15T16:55:45.316Z,30.62
2023-08-15T16:58:15.661Z,30.52
2023-08-15T17:00:44.365Z,30.43
2023-08-15T17:03:12.890Z,30.33
2023-08-15T17:05:41.820Z,30.22
2023-08-15T17:08:11.116Z,30.11
2023-08-15T17:10:39.602Z,30.00
2023-08-15T17:13:08.383Z,29.88
2023-08-15T17:15:37.067Z,29.75
2023-08-15T17:18:08.420Z,29.63
2023-08-15T17:20:39.635Z,29.51
2023-08-15T17:23:11.083Z,29.39
2023-08-15T17:25:41.566Z,29.27
2023-08-15T17:28:13.200Z,29.15
2023-08-15T17:30:43.645Z,29.02
2023-08-15T17:33:13.439Z,28.91
2023-08-15T17:35:42.141Z,28.77
2023-08-15T17:38:11.396Z,28.65
2023-08-15T17:40:40.428Z,28.53
2023-08-15T17:43:09.087Z,28.41
2023-08-15T17:45:41.250Z,28.30
2023-08-15T17:48:10.158Z,28.18
2023-08-15T17:50:39.042Z,28.06
2023-08-15T17:53:07.945Z,27.94
2023-08-15T17:55:36.416Z,27.82
2023-08-15T17:58:05.313Z,27.71
2023-08-15T18:00:34.004Z,27.60
2023-08-15T18:03:02.798Z,27.47
2023-08-15T18:05:31.904Z,27.36
2023-08-15T18:08:05.577Z,27.23
2023-08-15T18:10:34.272Z,27.13
2023-08-15T18:13:03.981Z,27.02
2023-08-15T18:15:32.451Z,26.93
2023-08-15T18:18:01.376Z,26.85
2023-08-15T18:20:30.140Z,26.75
2023-08-15T18:22:59.077Z,26.66
2023-08-15T18:25:27.712Z,26.56
2023-08-15T18:27:56.499Z,26.47
2023-08-15T18:30:28.612Z,26.37
2023-08-15T18:32:57.381Z,26.29
2023-08-15T18:35:26.044Z,26.20
2023-08-15T18:37:56.570Z,26.12
2023-08-15T18:40:25.598Z,26.06
2023-08-15T18:42:54.644Z,26.00
2023-08-15T18:45:23.753Z,25.95
2023-08-15T18:47:52.571Z,25.87
2023-08-15T18:50:21.532Z,25.78
2023-08-15T18:52:50.020Z,25.71
2023-08-15T18:55:19.782Z,25.64
2023-08-15T18:57:49.225Z,25.57
2023-08-15T19:00:19.469Z,25.52
2023-08-15T19:02:53.157Z,25.47
2023-08-15T19:05:22.247Z,25.44
2023-08-15T19:07:51.037Z,25.39
2023-08-15T19:10:22.541Z,25.32
2023-08-15T19:12:52.593Z,25.27
2023-08-15T19:15:22.940Z,25.23
2023-08-15T19:17:52.822Z,25.15
2023-08-15T19:20:26.562Z,25.09
2023-08-15T19:22:58.501Z,25.03
2023-08-15T19:25:27.298Z,24.96
2023-08-15T19:27:56.233Z,24.88
2023-08-15T19:30:25.074Z,24.80
2023-08-15T19:32:53.887Z,24.74
2023-08-15T19:35:23.057Z,24.67
2023-08-15T19:37:52.656Z,24.60
2023-08-15T19:40:21.138Z,24.53
2023-08-15T19:42:50.444Z,24.45
2023-08-15T19:45:19.328Z,24.38
2023-08-15T19:47:47.824Z,24.32
2023-08-15T19:50:17.726Z,24.25
2023-08-15T19:52:46.515Z,24.17
2023-08-15T19:55:15.095Z,24.12
2023-08-15T19:57:44.303Z,24.07
2023-08-15T20:00:13.657Z,24.01
2023-08-15T20:02:42.612Z,23.97
2023-08-15T20:05:11.280Z,23.92
2023-08-15T20:07:40.261Z,23.84
2023-08-15T20:10:12.348Z,23.79
2023-08-15T20:12:43.111Z,23.74
2023-08-15T20:15:12.091Z,23.69
2023-08-15T20:17:41.801Z,23.63
2023-08-15T20:20:11.471Z,23.58
2023-08-15T20:22:40.359Z,23.52
2023-08-15T20:25:09.439Z,23.47
2023-08-15T20:27:37.782Z,23.42
2023-08-15T20:30:07.284Z,23.36
2023-08-15T20:32:35.835Z,23.31
2023-08-15T20:35:07.011Z,23.27
2023-08-15T20:37:37.210Z,23.22
2023-08-15T20:40:06.402Z,23.19
2023-08-15T20:42:34.984Z,23.15
2023-08-15T20:45:08.493Z,23.10
2023-08-15T20:47:38.111Z,23.03
2023-08-15T20:50:08.011Z,22.98
2023-08-15T20:52:37.099Z,22.92
2023-08-15T20:55:09.250Z,22.86
2023-08-15T20:57:38.038Z,22.84
2023-08-15T21:00:07.031Z,22.81
2023-08-15T21:02:35.688Z,22.77
2023-08-15T21:05:04.760Z,22.75
2023-08-15T21:07:33.394Z,22.73
2023-08-15T21:10:02.407Z,22.70
2023-08-15T21:12:31.687Z,22.66
2023-08-15T21:15:00.286Z,22.61
2023-08-15T21:17:28.964Z,22.55
2023-08-15T21:19:57.742Z,22.52
2023-08-15T21:22:26.632Z,22.50
2023-08-15T21:24:55.692Z,22.46
2023-08-15T21:27:24.876Z,22.39
2023-08-15T21:29:53.623Z,22.31
2023-08-15T21:32:23.010Z,22.22
2023-08-15T21:34:51.897Z,22.14
2023-08-15T21:37:20.811Z,22.07
2023-08-15T21:39:49.792Z,21.98
2023-08-15T21:42:18.574Z,21.88
2023-08-15T21:44:47.159Z,21.81
2023-08-15T21:47:15.838Z,21.74
2023-08-15T21:49:45.653Z,21.68
2023-08-15T21:52:14.439Z,21.60
2023-08-15T21:54:43.227Z,21.54
2023-08-15T21:57:12.558Z,21.49
2023-08-15T21:59:42.649Z,21.44
2023-08-15T22:02:11.335Z,21.38
2023-08-15T22:04:40.044Z,21.32
2023-08-15T22:07:08.827Z,21.27
2023-08-15T22:09:37.394Z,21.24
2023-08-15T22:12:06.277Z,21.19
2023-08-15T22:14:35.067Z,21.15
2023-08-15T22:17:03.921Z,21.12
2023-08-15T22:19:32.780Z,21.09
2023-08-15T22:22:01.635Z,21.07
2023-08-15T22:24:30.637Z,21.07
2023-08-15T22:26:59.525Z,21.07
2023-08-15T22:29:28.409Z,21.08
2023-08-15T22:31:58.057Z,21.12
2023-08-15T22:34:26.597Z,21.15
2023-08-15T22:36:55.201Z,21.16
2023-08-15T22:39:25.608Z,21.16
2023-08-15T22:41:55.012Z,21.18
2023-08-15T22:44:24.025Z,21.20
2023-08-15T22:46:54.225Z,21.24
2023-08-15T22:49:23.020Z,21.26
2023-08-15T22:51:51.699Z,21.27
2023-08-15T22:54:20.490Z,21.27
2023-08-15T22:56:49.069Z,21.26
2023-08-15T22:59:18.067Z,21.25
2023-08-15T23:01:46.851Z,21.23
2023-08-15T23:04:15.487Z,21.21
2023-08-15T23:06:44.121Z,21.18
2023-08-15T23:09:14.142Z,21.14
2023-08-15T23:11:42.715Z,21.09
2023-08-15T23:14:11.401Z,21.06
2023-08-15T23:16:39.986Z,21.07
2023-08-15T23:19:08.992Z,21.12
2023-08-15T23:21:37.663Z,21.12
2023-08-15T23:24:06.973Z,21.12
2023-08-15T23:26:36.789Z,21.14
2023-08-15T23:29:05.868Z,21.16
2023-08-15T23:31:36.488Z,21.18
2023-08-15T23:34:06.519Z,21.18
2023-08-15T23:36:35.216Z,21.20
2023-08-15T23:39:06.303Z,21.20
2023-08-15T23:41:35.039Z,21.19
2023-08-15T23:44:04.126Z,21.19
2023-08-15T23:46:32.857Z,21.18
2023-08-15T23:49:01.596Z,21.14
2023-08-15T23:51:31.321Z,21.09
2023-08-15T23:54:00.102Z,21.05
2023-08-15T23:56:28.783Z,21.00
2023-08-15T23:58:57.367Z,21.01
